createdAt,value
2023-04-19T00:00:34.885Z,94819.00
2023-04-19T00:01:34.903Z,94818.00
2023-04-19T00:02:35.028Z,94818.00
2023-04-19T00:03:35.210Z,94818.00
2023-04-19T00:04:35.056Z,94816.00
2023-04-19T00:05:34.970Z,94814.00
2023-04-19T00:06:34.990Z,94814.00
2023-04-19T00:07:35.006Z,94814.00
2023-04-19T00:08:35.057Z,94816.00
2023-04-19T00:09:35.053Z,94812.00
2023-04-19T00:10:35.055Z,94816.00
2023-04-19T00:11:35.073Z,94816.00
2023-04-19T00:12:35.105Z,94812.00
2023-04-19T00:13:35.107Z,94812.00
2023-04-19T00:14:35.116Z,94814.00
2023-04-19T00:15:35.181Z,94810.00
2023-04-19T00:16:35.188Z,94810.00
2023-04-19T00:17:35.241Z,94810.00
2023-04-19T00:18:35.186Z,94810.00
2023-04-19T00:19:35.220Z,94814.00
2023-04-19T00:20:35.221Z,94812.00
2023-04-19T00:21:35.218Z,94812.00
2023-04-19T00:22:35.253Z,94812.00
2023-04-19T00:23:35.251Z,94814.00
2023-04-19T00:24:35.278Z,94814.00
2023-04-19T00:25:35.288Z,94812.00
2023-04-19T00:26:35.291Z,94812.00
2023-04-19T00:27:35.319Z,94812.00
2023-04-19T00:28:35.336Z,94810.00
2023-04-19T00:29:35.335Z,94810.00
2023-04-19T00:30:35.383Z,94810.00
2023-04-19T00:31:35.361Z,94808.00
2023-04-19T00:32:35.410Z,94806.00
2023-04-19T00:33:35.391Z,94806.00
2023-04-19T00:34:35.407Z,94806.00
2023-04-19T00:35:35.417Z,94806.00
2023-04-19T00:36:35.441Z,94804.00
2023-04-19T00:37:35.449Z,94804.00
2023-04-19T00:38:35.464Z,94804.00
2023-04-19T00:39:35.490Z,94804.00
2023-04-19T00:40:35.487Z,94802.00
2023-04-19T00:41:35.500Z,94800.00
2023-04-19T00:42:35.517Z,94800.00
2023-04-19T00:43:35.549Z,94802.00
2023-04-19T00:44:35.571Z,94800.00
2023-04-19T00:45:35.563Z,94798.00
2023-04-19T00:46:35.612Z,94798.00
2023-04-19T00:47:35.636Z,94798.00
2023-04-19T00:48:35.626Z,94798.00
2023-04-19T00:49:35.642Z,94798.00
2023-04-19T00:50:35.656Z,94796.00
2023-04-19T00:51:35.671Z,94794.00
2023-04-19T00:52:35.690Z,94796.00
2023-04-19T00:53:35.694Z,94796.00
2023-04-19T00:54:35.733Z,94796.00
2023-04-19T00:55:35.742Z,94796.00
2023-04-19T00:56:35.745Z,94796.00
2023-04-19T00:57:35.760Z,94794.00
2023-04-19T00:58:35.787Z,94796.00
2023-04-19T00:59:35.810Z,94794.00
2023-04-19T01:00:35.826Z,94794.00
2023-04-19T01:01:35.866Z,94796.00
2023-04-19T01:02:36.024Z,94796.00
2023-04-19T01:03:36.136Z,94794.00
2023-04-19T01:04:35.971Z,94794.00
2023-04-19T01:05:35.906Z,94796.00
2023-04-19T01:06:35.918Z,94792.00
2023-04-19T01:07:35.925Z,94794.00
2023-04-19T01:08:35.950Z,94794.00
2023-04-19T01:09:35.948Z,94792.00
2023-04-19T01:10:35.959Z,94792.00
2023-04-19T01:11:35.976Z,94792.00
2023-04-19T01:12:35.997Z,94790.00
2023-04-19T01:13:36.003Z,94790.00
2023-04-19T01:14:36.001Z,94790.00
2023-04-19T01:15:36.070Z,94788.00
2023-04-19T01:16:36.042Z,94790.00
2023-04-19T01:17:36.084Z,94790.00
2023-04-19T01:18:36.071Z,94788.00
2023-04-19T01:19:36.062Z,94790.00
2023-04-19T01:20:36.083Z,94788.00
2023-04-19T01:21:36.096Z,94788.00
2023-04-19T01:22:36.100Z,94784.00
2023-04-19T01:23:36.126Z,94786.00
2023-04-19T01:24:36.142Z,94786.00
2023-04-19T01:25:36.124Z,94782.00
2023-04-19T01:26:36.183Z,94780.00
2023-04-19T01:27:36.184Z,94784.00
2023-04-19T01:28:36.181Z,94780.00
2023-04-19T01:29:36.186Z,94780.00
2023-04-19T01:30:36.197Z,94780.00
2023-04-19T01:31:36.225Z,94778.00
2023-04-19T01:32:36.212Z,94778.00
2023-04-19T01:33:36.212Z,94776.00
2023-04-19T01:34:36.244Z,94778.00
2023-04-19T01:35:36.232Z,94774.00
2023-04-19T01:36:36.264Z,94770.00
2023-04-19T01:37:36.274Z,94770.00
2023-04-19T01:38:36.274Z,94768.00
2023-04-19T01:39:36.289Z,94768.00
2023-04-19T01:40:36.311Z,94767.00
2023-04-19T01:41:36.323Z,94768.00
2023-04-19T01:42:36.314Z,94767.00
2023-04-19T01:43:36.341Z,94767.00
2023-04-19T01:44:36.354Z,94767.00
2023-04-19T01:45:36.372Z,94767.00
2023-04-19T01:46:36.403Z,94767.00
2023-04-19T01:47:36.438Z,94765.00
2023-04-19T01:48:36.403Z,94765.00
2023-04-19T01:49:36.411Z,94763.00
2023-04-19T01:50:36.430Z,94763.00
2023-04-19T01:51:36.426Z,94763.00
2023-04-19T01:52:36.435Z,94763.00
2023-04-19T01:53:36.468Z,94761.00
2023-04-19T01:54:36.460Z,94761.00
2023-04-19T01:55:36.487Z,94759.00
2023-04-19T01:56:36.498Z,94759.00
2023-04-19T01:57:36.517Z,94759.00
2023-04-19T01:58:36.513Z,94759.00
2023-04-19T01:59:36.554Z,94759.00
2023-04-19T02:00:36.598Z,94759.00
2023-04-19T02:01:36.567Z,94759.00
2023-04-19T02:02:36.850Z,94761.00
2023-04-19T02:03:36.747Z,94759.00
2023-04-19T02:04:36.621Z,94755.00
2023-04-19T02:05:36.634Z,94757.00
2023-04-19T02:06:36.635Z,94757.00
2023-04-19T02:07:36.659Z,94755.00
2023-04-19T02:08:36.655Z,94759.00
2023-04-19T02:09:36.673Z,94757.00
2023-04-19T02:10:36.714Z,94757.00
2023-04-19T02:11:36.725Z,94757.00
2023-04-19T02:12:36.716Z,94759.00
2023-04-19T02:13:36.734Z,94757.00
2023-04-19T02:14:36.773Z,94757.00
2023-04-19T02:15:36.774Z,94757.00
2023-04-19T02:16:36.838Z,94757.00
2023-04-19T02:17:36.856Z,94757.00
2023-04-19T02:18:36.829Z,94757.00
2023-04-19T02:19:36.823Z,94755.00
2023-04-19T02:20:36.846Z,94753.00
2023-04-19T02:21:36.859Z,94753.00
2023-04-19T02:22:36.881Z,94753.00
2023-04-19T02:23:36.906Z,94751.00
2023-04-19T02:24:36.905Z,94751.00
2023-04-19T02:25:36.945Z,94751.00
2023-04-19T02:26:36.940Z,94751.00
2023-04-19T02:27:36.997Z,94749.00
2023-04-19T02:28:36.986Z,94751.00
2023-04-19T02:29:37.019Z,94749.00
2023-04-19T02:30:37.041Z,94747.00
2023-04-19T02:31:37.086Z,94747.00
2023-04-19T02:32:37.123Z,94745.00
2023-04-19T02:33:37.081Z,94747.00
2023-04-19T02:34:37.086Z,94747.00
2023-04-19T02:35:37.100Z,94745.00
2023-04-19T02:36:37.135Z,94743.00
2023-04-19T02:37:37.149Z,94745.00
2023-04-19T02:38:37.172Z,94747.00
2023-04-19T02:39:37.186Z,94747.00
2023-04-19T02:40:37.193Z,94741.00
2023-04-19T02:41:37.220Z,94743.00
2023-04-19T02:42:37.224Z,94745.00
2023-04-19T02:43:37.250Z,94743.00
2023-04-19T02:44:37.252Z,94743.00
2023-04-19T02:45:37.367Z,94737.00
2023-04-19T02:46:37.388Z,94743.00
2023-04-19T02:47:37.326Z,94741.00
2023-04-19T02:48:37.358Z,94739.00
2023-04-19T02:49:37.351Z,94739.00
2023-04-19T02:50:37.362Z,94739.00
2023-04-19T02:51:37.372Z,94735.00
2023-04-19T02:52:37.390Z,94739.00
2023-04-19T02:53:37.392Z,94737.00
2023-04-19T02:54:37.428Z,94737.00
2023-04-19T02:55:37.436Z,94737.00
2023-04-19T02:56:37.447Z,94735.00
2023-04-19T02:57:37.457Z,94733.00
2023-04-19T02:58:37.479Z,94733.00
2023-04-19T02:59:37.479Z,94735.00
2023-04-19T03:00:37.512Z,94733.00
2023-04-19T03:01:37.648Z,94733.00
2023-04-19T03:02:37.627Z,94735.00
2023-04-19T03:03:37.619Z,94733.00
2023-04-19T03:04:37.603Z,94735.00
2023-04-19T03:05:37.565Z,94731.00
2023-04-19T03:06:37.595Z,94733.00
2023-04-19T03:07:37.617Z,94733.00
2023-04-19T03:08:37.640Z,94733.00
2023-04-19T03:09:37.652Z,94731.00
2023-04-19T03:10:37.652Z,94731.00
2023-04-19T03:11:37.655Z,94731.00
2023-04-19T03:12:37.690Z,94731.00
2023-04-19T03:13:37.682Z,94727.00
2023-04-19T03:14:37.717Z,94729.00
2023-04-19T03:15:37.744Z,94731.00
2023-04-19T03:16:37.720Z,94731.00
2023-04-19T03:17:37.877Z,94725.00
2023-04-19T03:18:37.748Z,94725.00
2023-04-19T03:19:37.780Z,94725.00
2023-04-19T03:20:37.771Z,94727.00
2023-04-19T03:21:37.782Z,94725.00
2023-04-19T03:22:37.838Z,94725.00
2023-04-19T03:23:37.869Z,94723.00
2023-04-19T03:24:38.315Z,94725.00
2023-04-19T03:25:37.850Z,94725.00
2023-04-19T03:26:37.852Z,94723.00
2023-04-19T03:27:37.888Z,94721.00
2023-04-19T03:28:37.911Z,94717.00
2023-04-19T03:29:37.921Z,94719.00
2023-04-19T03:30:37.956Z,94717.00
2023-04-19T03:31:37.994Z,94719.00
2023-04-19T03:32:38.038Z,94717.00
2023-04-19T03:33:37.986Z,94714.00
2023-04-19T03:34:38.038Z,94712.00
2023-04-19T03:35:38.024Z,94710.00
2023-04-19T03:36:38.042Z,94712.00
2023-04-19T03:37:38.056Z,94710.00
2023-04-19T03:38:38.092Z,94706.00
2023-04-19T03:39:38.094Z,94706.00
2023-04-19T03:40:38.103Z,94708.00
2023-04-19T03:41:38.138Z,94706.00
2023-04-19T03:42:38.141Z,94704.00
2023-04-19T03:43:38.168Z,94706.00
2023-04-19T03:44:38.184Z,94704.00
2023-04-19T03:45:38.184Z,94704.00
2023-04-19T03:46:38.272Z,94704.00
2023-04-19T03:47:38.268Z,94704.00
2023-04-19T03:48:38.242Z,94704.00
2023-04-19T03:49:38.264Z,94704.00
2023-04-19T03:50:38.290Z,94704.00
2023-04-19T03:51:38.287Z,94706.00
2023-04-19T03:52:38.319Z,94702.00
2023-04-19T03:53:38.355Z,94704.00
2023-04-19T03:54:38.361Z,94704.00
2023-04-19T03:55:38.388Z,94706.00
2023-04-19T03:56:38.380Z,94702.00
2023-04-19T03:57:38.406Z,94704.00
2023-04-19T03:58:38.761Z,94706.00
2023-04-19T03:59:38.454Z,94702.00
2023-04-19T04:00:38.511Z,94704.00
2023-04-19T04:01:38.525Z,94706.00
2023-04-19T04:02:38.668Z,94700.00
2023-04-19T04:03:38.696Z,94702.00
2023-04-19T04:04:38.776Z,94702.00
2023-04-19T04:05:38.606Z,94700.00
2023-04-19T04:06:38.600Z,94702.00
2023-04-19T04:07:38.567Z,94700.00
2023-04-19T04:08:38.596Z,94700.00
2023-04-19T04:09:38.611Z,94700.00
2023-04-19T04:10:38.621Z,94700.00
2023-04-19T04:11:38.641Z,94698.00
2023-04-19T04:12:38.672Z,94700.00
2023-04-19T04:13:38.677Z,94700.00
2023-04-19T04:14:38.701Z,94700.00
2023-04-19T04:15:38.714Z,94700.00
2023-04-19T04:16:38.752Z,94700.00
2023-04-19T04:17:38.792Z,94702.00
2023-04-19T04:18:38.755Z,94702.00
2023-04-19T04:19:38.760Z,94702.00
2023-04-19T04:20:38.787Z,94700.00
2023-04-19T04:21:38.824Z,94702.00
2023-04-19T04:22:38.822Z,94700.00
2023-04-19T04:23:38.848Z,94700.00
2023-04-19T04:24:38.858Z,94700.00
2023-04-19T04:25:38.862Z,94702.00
2023-04-19T04:26:38.878Z,94702.00
2023-04-19T04:27:38.908Z,94700.00
2023-04-19T04:28:38.933Z,94702.00
2023-04-19T04:29:38.939Z,94704.00
2023-04-19T04:30:38.973Z,94704.00
2023-04-19T04:31:39.041Z,94706.00
2023-04-19T04:32:39.038Z,94708.00
2023-04-19T04:33:39.016Z,94704.00
2023-04-19T04:34:39.050Z,94706.00
2023-04-19T04:35:39.050Z,94706.00
2023-04-19T04:36:39.066Z,94706.00
2023-04-19T04:37:39.114Z,94704.00
2023-04-19T04:38:39.101Z,94704.00
2023-04-19T04:39:39.133Z,94704.00
2023-04-19T04:40:39.151Z,94702.00
2023-04-19T04:41:39.170Z,94702.00
2023-04-19T04:42:39.188Z,94704.00
2023-04-19T04:43:39.183Z,94702.00
2023-04-19T04:44:39.253Z,94702.00
2023-04-19T04:45:39.265Z,94704.00
2023-04-19T04:46:39.263Z,94706.00
2023-04-19T04:47:39.319Z,94704.00
2023-04-19T04:48:39.283Z,94704.00
2023-04-19T04:49:39.314Z,94704.00
2023-04-19T04:50:39.322Z,94704.00
2023-04-19T04:51:39.359Z,94704.00
2023-04-19T04:52:39.372Z,94704.00
2023-04-19T04:53:39.371Z,94700.00
2023-04-19T04:54:39.400Z,94698.00
2023-04-19T04:55:39.421Z,94698.00
2023-04-19T04:56:39.488Z,94700.00
2023-04-19T04:57:39.458Z,94698.00
2023-04-19T04:58:39.468Z,94700.00
2023-04-19T04:59:39.506Z,94700.00
2023-04-19T05:00:39.501Z,94700.00
2023-04-19T05:01:39.544Z,94698.00
2023-04-19T05:02:39.608Z,94696.00
2023-04-19T05:03:39.607Z,94694.00
2023-04-19T05:04:39.606Z,94692.00
2023-04-19T05:05:39.613Z,94694.00
2023-04-19T05:06:39.617Z,94692.00
2023-04-19T05:07:39.635Z,94692.00
2023-04-19T05:08:39.653Z,94696.00
2023-04-19T05:09:39.681Z,94694.00
2023-04-19T05:10:39.697Z,94696.00
2023-04-19T05:11:39.715Z,94694.00
2023-04-19T05:12:39.770Z,94698.00
2023-04-19T05:13:39.763Z,94696.00
2023-04-19T05:14:39.766Z,94696.00
2023-04-19T05:15:39.788Z,94694.00
2023-04-19T05:16:39.863Z,94694.00
2023-04-19T05:17:39.839Z,94692.00
2023-04-19T05:18:39.830Z,94692.00
2023-04-19T05:19:39.809Z,94694.00
2023-04-19T05:20:39.842Z,94690.00
2023-04-19T05:21:39.834Z,94692.00
2023-04-19T05:22:39.816Z,94692.00
2023-04-19T05:23:39.819Z,94688.00
2023-04-19T05:24:41.821Z,94688.00
2023-04-19T05:25:39.835Z,94692.00
2023-04-19T05:26:39.835Z,94696.00
2023-04-19T05:27:39.831Z,94692.00
2023-04-19T05:28:40.063Z,94694.00
2023-04-19T05:29:39.863Z,94694.00
2023-04-19T05:30:39.856Z,94694.00
2023-04-19T05:31:39.892Z,94696.00
2023-04-19T05:32:39.959Z,94692.00
2023-04-19T05:33:39.868Z,94692.00
2023-04-19T05:34:39.902Z,94690.00
2023-04-19T05:35:39.901Z,94690.00
2023-04-19T05:36:39.904Z,94690.00
2023-04-19T05:37:39.931Z,94686.00
2023-04-19T05:38:39.966Z,94686.00
2023-04-19T05:39:41.149Z,94686.00
2023-04-19T05:40:39.925Z,94686.00
2023-04-19T05:41:39.927Z,94688.00
2023-04-19T05:42:39.905Z,94688.00
2023-04-19T05:43:39.907Z,94688.00
2023-04-19T05:44:39.914Z,94694.00
2023-04-19T05:45:39.888Z,94690.00
2023-04-19T05:46:39.936Z,94688.00
2023-04-19T05:47:39.990Z,94690.00
2023-04-19T05:48:39.862Z,94690.00
2023-04-19T05:49:41.407Z,94690.00
2023-04-19T05:50:39.889Z,94692.00
2023-04-19T05:51:39.858Z,94698.00
2023-04-19T05:52:39.856Z,94696.00
2023-04-19T05:53:39.842Z,94698.00
2023-04-19T05:54:39.839Z,94694.00
2023-04-19T05:55:39.841Z,94696.00
2023-04-19T05:56:39.842Z,94696.00
2023-04-19T05:57:39.837Z,94698.00
2023-04-19T05:58:39.849Z,94696.00
2023-04-19T05:59:39.806Z,94696.00
2023-04-19T06:00:39.795Z,94698.00
2023-04-19T06:01:39.831Z,94694.00
2023-04-19T06:02:39.887Z,94696.00
2023-04-19T06:03:40.029Z,94696.00
2023-04-19T06:04:39.979Z,94700.00
2023-04-19T06:05:39.819Z,94694.00
2023-04-19T06:06:39.804Z,94696.00
2023-04-19T06:07:43.304Z,94698.00
2023-04-19T06:08:40.773Z,94698.00
2023-04-19T06:09:39.752Z,94696.00
2023-04-19T06:10:51.920Z,94698.00
2023-04-19T06:11:50.089Z,94698.00
2023-04-19T06:12:40.741Z,94698.00
2023-04-19T06:13:39.705Z,94698.00
2023-04-19T06:14:39.704Z,94698.00
2023-04-19T06:15:39.731Z,94698.00
2023-04-19T06:16:39.740Z,94700.00
2023-04-19T06:17:39.720Z,94698.00
2023-04-19T06:18:39.693Z,94700.00
2023-04-19T06:19:39.690Z,94698.00
2023-04-19T06:20:39.672Z,94698.00
2023-04-19T06:21:39.668Z,94698.00
2023-04-19T06:22:39.673Z,94694.00
2023-04-19T06:23:39.640Z,94694.00
2023-04-19T06:24:40.088Z,94696.00
2023-04-19T06:25:39.649Z,94694.00
2023-04-19T06:26:39.634Z,94694.00
2023-04-19T06:27:39.615Z,94694.00
2023-04-19T06:28:39.628Z,94692.00
2023-04-19T06:29:39.633Z,94692.00
2023-04-19T06:30:40.105Z,94694.00
2023-04-19T06:31:39.669Z,94682.00
2023-04-19T06:32:39.644Z,94684.00
2023-04-19T06:33:39.592Z,94680.00
2023-04-19T06:34:39.590Z,94684.00
2023-04-19T06:35:39.593Z,94682.00
2023-04-19T06:36:39.558Z,94686.00
2023-04-19T06:37:39.557Z,94686.00
2023-04-19T06:38:39.577Z,94688.00
2023-04-19T06:39:39.541Z,94690.00
2023-04-19T06:40:39.529Z,94692.00
2023-04-19T06:41:39.554Z,94694.00
2023-04-19T06:42:39.532Z,94692.00
2023-04-19T06:43:39.513Z,94694.00
2023-04-19T06:44:39.582Z,94692.00
2023-04-19T06:45:39.621Z,94688.00
2023-04-19T06:46:39.495Z,94690.00
2023-04-19T06:47:39.537Z,94692.00
2023-04-19T06:48:39.472Z,94694.00
2023-04-19T06:49:39.468Z,94694.00
2023-04-19T06:50:39.460Z,94698.00
2023-04-19T06:51:39.462Z,94696.00
2023-04-19T06:52:39.449Z,94696.00
2023-04-19T06:53:39.446Z,94694.00
2023-04-19T06:54:39.449Z,94696.00
2023-04-19T06:55:39.590Z,94694.00
2023-04-19T06:56:39.690Z,94698.00
2023-04-19T06:57:39.432Z,94698.00
2023-04-19T06:58:39.411Z,94698.00
2023-04-19T06:59:39.603Z,94696.00
2023-04-19T07:00:39.410Z,94696.00
2023-04-19T07:01:39.449Z,94698.00
2023-04-19T07:02:39.773Z,94700.00
2023-04-19T07:03:39.502Z,94696.00
2023-04-19T07:04:39.519Z,94694.00
2023-04-19T07:05:39.615Z,94698.00
2023-04-19T07:06:39.386Z,94696.00
2023-04-19T07:07:39.356Z,94698.00
2023-04-19T07:08:49.294Z,94702.00
2023-04-19T07:09:40.364Z,94698.00
2023-04-19T07:10:39.357Z,94700.00
2023-04-19T07:11:39.348Z,94700.00
2023-04-19T07:12:39.337Z,94700.00
2023-04-19T07:13:39.316Z,94696.00
2023-04-19T07:14:39.377Z,94698.00
2023-04-19T07:15:39.629Z,94696.00
2023-04-19T07:16:39.309Z,94694.00
2023-04-19T07:17:39.324Z,94694.00
2023-04-19T07:18:39.301Z,94694.00
2023-04-19T07:19:39.279Z,94692.00
2023-04-19T07:20:39.609Z,94692.00
2023-04-19T07:21:39.447Z,94692.00
2023-04-19T07:22:39.260Z,94690.00
2023-04-19T07:23:39.284Z,94688.00
2023-04-19T07:24:39.255Z,94688.00
2023-04-19T07:25:39.595Z,94690.00
2023-04-19T07:26:39.251Z,94674.00
2023-04-19T07:27:39.268Z,94678.00
2023-04-19T07:28:39.231Z,94676.00
2023-04-19T07:29:39.598Z,94672.00
2023-04-19T07:30:39.212Z,94674.00
2023-04-19T07:31:39.266Z,94672.00
2023-04-19T07:32:39.356Z,94669.00
2023-04-19T07:33:39.199Z,94670.00
2023-04-19T07:34:39.212Z,94670.00
2023-04-19T07:35:39.239Z,94670.00
2023-04-19T07:36:39.273Z,94670.00
2023-04-19T07:37:39.323Z,94669.00
2023-04-19T07:38:39.319Z,94672.00
2023-04-19T07:39:39.353Z,94670.00
2023-04-19T07:40:39.403Z,94669.00
2023-04-19T07:41:39.410Z,94670.00
2023-04-19T07:42:39.421Z,94667.00
2023-04-19T07:43:41.091Z,94669.00
2023-04-19T07:44:39.639Z,94667.00
2023-04-19T07:45:39.520Z,94674.00
2023-04-19T07:46:39.594Z,94670.00
2023-04-19T07:47:39.550Z,94670.00
2023-04-19T07:48:39.612Z,94672.00
2023-04-19T07:49:39.647Z,94669.00
2023-04-19T07:50:39.690Z,94670.00
2023-04-19T07:51:39.700Z,94670.00
2023-04-19T07:52:39.729Z,94669.00
2023-04-19T07:53:39.715Z,94670.00
2023-04-19T07:54:40.108Z,94669.00
2023-04-19T07:55:40.118Z,94667.00
2023-04-19T07:56:39.816Z,94667.00
2023-04-19T07:57:39.906Z,94667.00
2023-04-19T07:58:39.929Z,94669.00
2023-04-19T07:59:39.982Z,94669.00
2023-04-19T08:00:40.070Z,94667.00
2023-04-19T08:01:40.283Z,94665.00
2023-04-19T08:02:40.226Z,94667.00
2023-04-19T08:03:40.340Z,94663.00
2023-04-19T08:04:40.382Z,94661.00
2023-04-19T08:05:40.688Z,94663.00
2023-04-19T08:06:40.237Z,94661.00
2023-04-19T08:07:40.229Z,94661.00
2023-04-19T08:08:40.244Z,94661.00
2023-04-19T08:09:40.280Z,94661.00
2023-04-19T08:10:40.606Z,94655.00
2023-04-19T08:11:40.271Z,94657.00
2023-04-19T08:12:45.285Z,94655.00
2023-04-19T08:13:42.134Z,94655.00
2023-04-19T08:14:51.512Z,94653.00
2023-04-19T08:17:10.923Z,94647.00
2023-04-19T08:17:42.311Z,94647.00
2023-04-19T08:18:40.417Z,94647.00
2023-04-19T08:19:40.615Z,94645.00
2023-04-19T08:20:40.414Z,94645.00
2023-04-19T08:21:41.612Z,94643.00
2023-04-19T08:22:40.431Z,94641.00
2023-04-19T08:23:47.977Z,94639.00
2023-04-19T08:24:41.635Z,94641.00
2023-04-19T08:25:40.643Z,94645.00
2023-04-19T08:26:40.367Z,94645.00
2023-04-19T08:27:40.389Z,94641.00
2023-04-19T08:28:40.355Z,94641.00
2023-04-19T08:29:40.355Z,94643.00
2023-04-19T08:30:40.344Z,94641.00
2023-04-19T08:31:40.394Z,94637.00
2023-04-19T08:32:40.387Z,94639.00
2023-04-19T08:33:40.334Z,94639.00
2023-04-19T08:34:40.686Z,94631.00
2023-04-19T08:35:40.310Z,94631.00
2023-04-19T08:36:45.923Z,94619.00
2023-04-19T08:37:41.300Z,94619.00
2023-04-19T08:38:41.749Z,94617.00
2023-04-19T08:39:40.902Z,94619.00
2023-04-19T08:40:40.284Z,94614.00
2023-04-19T08:41:40.301Z,94614.00
2023-04-19T08:42:40.280Z,94617.00
2023-04-19T08:43:41.655Z,94616.00
2023-04-19T08:44:53.786Z,94614.00
2023-04-19T08:45:41.309Z,94614.00
2023-04-19T08:46:40.250Z,94612.00
2023-04-19T08:48:40.325Z,94608.00
2023-04-19T08:49:42.748Z,94608.00
2023-04-19T08:50:48.726Z,94608.00
2023-04-19T08:51:41.221Z,94606.00
2023-04-19T08:52:51.984Z,94604.00
2023-04-19T08:53:41.205Z,94604.00
2023-04-19T08:54:40.644Z,94602.00
2023-04-19T08:55:47.303Z,94600.00
2023-04-19T08:56:41.197Z,94600.00
2023-04-19T08:57:40.188Z,94600.00
2023-04-19T08:58:54.911Z,94596.00
2023-04-19T08:59:41.239Z,94598.00
2023-04-19T09:00:40.170Z,94596.00
2023-04-19T09:01:41.075Z,94596.00
2023-04-19T09:02:40.342Z,94592.00
2023-04-19T09:03:55.456Z,94590.00
2023-04-19T09:04:41.321Z,94590.00
2023-04-19T09:05:40.298Z,94588.00
2023-04-19T09:06:40.382Z,94586.00
2023-04-19T09:07:40.114Z,94588.00
2023-04-19T09:08:40.114Z,94586.00
2023-04-19T09:09:48.834Z,94586.00
2023-04-19T09:10:41.099Z,94586.00
2023-04-19T09:11:40.103Z,94584.00
2023-04-19T09:12:40.075Z,94582.00
2023-04-19T09:13:40.081Z,94582.00
2023-04-19T09:14:41.419Z,94580.00
2023-04-19T09:15:40.151Z,94578.00
2023-04-19T09:16:40.091Z,94584.00
2023-04-19T09:17:40.079Z,94582.00
2023-04-19T09:18:48.788Z,94576.00
2023-04-19T09:19:41.051Z,94576.00
2023-04-19T09:20:40.170Z,94574.00
2023-04-19T09:21:40.035Z,94572.00
2023-04-19T09:22:40.054Z,94570.00
2023-04-19T09:23:40.009Z,94570.00
2023-04-19T09:26:05.721Z,94570.00
2023-04-19T09:26:41.284Z,94569.00
2023-04-19T09:27:39.991Z,94569.00
2023-04-19T09:28:39.990Z,94565.00
2023-04-19T09:29:40.080Z,94563.00
2023-04-19T09:30:46.965Z,94561.00
2023-04-19T09:31:50.936Z,94559.00
2023-04-19T09:32:41.065Z,94559.00
2023-04-19T09:33:40.030Z,94557.00
2023-04-19T09:34:39.928Z,94557.00
2023-04-19T09:35:40.161Z,94553.00
2023-04-19T09:36:39.923Z,94551.00
2023-04-19T09:38:01.748Z,94549.00
2023-04-19T09:38:40.922Z,94547.00
2023-04-19T09:39:39.906Z,94547.00
2023-04-19T09:40:40.152Z,94547.00
2023-04-19T09:41:41.436Z,94545.00
2023-04-19T09:42:55.462Z,94541.00
2023-04-19T09:45:40.092Z,94539.00
2023-04-19T09:46:40.132Z,94539.00
2023-04-19T09:47:40.138Z,94539.00
2023-04-19T09:48:40.068Z,94535.00
2023-04-19T09:49:48.400Z,94533.00
2023-04-19T09:50:53.649Z,94531.00
2023-04-19T09:51:41.087Z,94529.00
2023-04-19T09:52:40.036Z,94533.00
2023-04-19T09:53:40.050Z,94531.00
2023-04-19T09:54:40.044Z,94531.00
2023-04-19T09:55:52.385Z,94531.00
2023-04-19T09:56:41.170Z,94529.00
2023-04-19T09:57:40.020Z,94531.00
2023-04-19T09:58:49.953Z,94527.00
2023-04-19T09:59:40.988Z,94523.00
2023-04-19T10:00:47.914Z,94523.00
2023-04-19T10:01:41.021Z,94522.00
2023-04-19T10:02:40.029Z,94523.00
2023-04-19T10:03:40.130Z,94520.00
2023-04-19T10:05:40.202Z,94518.00
2023-04-19T10:06:52.164Z,94518.00
2023-04-19T10:07:40.983Z,94518.00
2023-04-19T10:08:39.938Z,94516.00
2023-04-19T10:09:49.628Z,94516.00
2023-04-19T10:10:42.328Z,94514.00
2023-04-19T10:11:40.159Z,94516.00
2023-04-19T10:13:40.912Z,94514.00
2023-04-19T10:14:40.002Z,94510.00
2023-04-19T10:15:50.582Z,94512.00
2023-04-19T10:16:41.202Z,94510.00
2023-04-19T10:17:39.912Z,94512.00
2023-04-19T10:18:39.869Z,94512.00
2023-04-19T10:19:39.887Z,94502.00
2023-04-19T10:20:39.866Z,94502.00
2023-04-19T10:21:40.174Z,94498.00
2023-04-19T10:22:39.847Z,94498.00
2023-04-19T10:23:39.835Z,94492.00
2023-04-19T10:24:39.833Z,94492.00
2023-04-19T10:25:40.196Z,94490.00
2023-04-19T10:26:39.862Z,94494.00
2023-04-19T10:27:39.838Z,94490.00
2023-04-19T10:28:39.812Z,94490.00
2023-04-19T10:29:39.823Z,94486.00
2023-04-19T10:30:39.811Z,94488.00
2023-04-19T10:31:39.815Z,94488.00
2023-04-19T10:32:39.815Z,94484.00
2023-04-19T10:33:39.803Z,94482.00
2023-04-19T10:34:39.809Z,94484.00
2023-04-19T10:35:39.767Z,94482.00
2023-04-19T10:36:40.182Z,94482.00
2023-04-19T10:37:39.818Z,94478.00
2023-04-19T10:38:39.828Z,94478.00
2023-04-19T10:39:39.836Z,94475.00
2023-04-19T10:40:39.959Z,94475.00
2023-04-19T10:41:39.898Z,94476.00
2023-04-19T10:42:39.902Z,94476.00
2023-04-19T10:43:39.922Z,94473.00
2023-04-19T10:44:39.971Z,94467.00
2023-04-19T10:45:40.221Z,94467.00
2023-04-19T10:46:40.100Z,94463.00
2023-04-19T10:47:40.037Z,94465.00
2023-04-19T10:48:40.013Z,94459.00
2023-04-19T10:49:39.993Z,94459.00
2023-04-19T10:50:40.086Z,94457.00
2023-04-19T10:51:40.050Z,94459.00
2023-04-19T10:52:40.060Z,94453.00
2023-04-19T10:53:40.056Z,94453.00
2023-04-19T10:54:40.077Z,94451.00
2023-04-19T10:55:40.111Z,94449.00
2023-04-19T10:56:40.121Z,94449.00
2023-04-19T10:57:40.153Z,94445.00
2023-04-19T10:58:40.177Z,94445.00
2023-04-19T10:59:40.186Z,94443.00
2023-04-19T11:00:40.218Z,94441.00
2023-04-19T11:01:40.680Z,94441.00
2023-04-19T11:02:40.353Z,94441.00
2023-04-19T11:03:40.419Z,94441.00
2023-04-19T11:04:40.444Z,94441.00
2023-04-19T11:05:40.290Z,94437.00
2023-04-19T11:06:40.284Z,94431.00
2023-04-19T11:07:40.302Z,94427.00
2023-04-19T11:08:40.308Z,94425.00
2023-04-19T11:09:40.330Z,94423.00
2023-04-19T11:10:40.459Z,94423.00
2023-04-19T11:11:40.691Z,94421.00
2023-04-19T11:12:40.419Z,94416.00
2023-04-19T11:13:40.465Z,94416.00
2023-04-19T11:14:40.529Z,94414.00
2023-04-19T11:15:40.579Z,94412.00
2023-04-19T11:16:46.199Z,94412.00
2023-04-19T11:17:41.561Z,94410.00
2023-04-19T11:18:40.538Z,94404.00
2023-04-19T11:19:40.525Z,94402.00
2023-04-19T11:20:40.583Z,94404.00
2023-04-19T11:21:40.532Z,94400.00
2023-04-19T11:22:40.520Z,94402.00
2023-04-19T11:23:40.513Z,94402.00
2023-04-19T11:24:40.496Z,94400.00
2023-04-19T11:25:40.485Z,94398.00
2023-04-19T11:26:40.482Z,94394.00
2023-04-19T11:27:40.502Z,94396.00
2023-04-19T11:28:40.467Z,94392.00
2023-04-19T11:29:40.477Z,94396.00
2023-04-19T11:30:40.479Z,94392.00
2023-04-19T11:31:40.580Z,94388.00
2023-04-19T11:32:40.612Z,94386.00
2023-04-19T11:33:40.645Z,94384.00
2023-04-19T11:34:40.648Z,94382.00
2023-04-19T11:35:40.682Z,94378.00
2023-04-19T11:36:40.762Z,94376.00
2023-04-19T11:37:40.802Z,94376.00
2023-04-19T11:38:40.879Z,94367.00
2023-04-19T11:39:40.907Z,94365.00
2023-04-19T11:40:40.970Z,94365.00
2023-04-19T11:41:41.033Z,94361.00
2023-04-19T11:42:41.099Z,94365.00
2023-04-19T11:43:41.167Z,94361.00
2023-04-19T11:44:41.189Z,94357.00
2023-04-19T11:45:41.172Z,94357.00
2023-04-19T11:46:41.265Z,94357.00
2023-04-19T11:47:41.344Z,94353.00
2023-04-19T11:48:41.333Z,94351.00
2023-04-19T11:49:41.393Z,94349.00
2023-04-19T11:50:41.526Z,94347.00
2023-04-19T11:51:41.482Z,94345.00